createdAt,value
2019-03-18T00:02:19.732Z,0.10
2019-03-18T00:07:27.041Z,0.10
2019-03-18T00:12:33.927Z,0.00
2019-03-18T00:17:40.046Z,0.10
2019-03-18T00:22:45.922Z,0.00
2019-03-18T00:27:52.281Z,0.00
2019-03-18T00:32:58.982Z,0.00
2019-03-18T00:38:06.836Z,0.13
2019-03-18T00:43:14.240Z,0.00
2019-03-18T00:48:21.367Z,0.10
2019-03-18T00:53:28.827Z,0.20
2019-03-18T00:58:37.385Z,0.10
2019-03-18T01:03:43.446Z,0.13
2019-03-18T01:08:50.330Z,0.17
2019-03-18T01:13:56.803Z,0.10
2019-03-18T01:19:04.590Z,0.40
2019-03-18T01:24:11.011Z,0.60
2019-03-18T01:29:17.870Z,0.37
2019-03-18T01:34:24.901Z,0.30
2019-03-18T01:39:31.671Z,0.40
2019-03-18T01:44:39.386Z,0.40
2019-03-18T01:49:47.136Z,0.40
2019-03-18T01:54:53.801Z,0.20
2019-03-18T02:00:00.642Z,0.27
2019-03-18T02:05:07.594Z,0.43
2019-03-18T02:10:14.138Z,0.40
2019-03-18T02:15:20.270Z,0.33
2019-03-18T02:20:26.807Z,0.20
2019-03-18T02:25:34.420Z,0.40
2019-03-18T02:30:41.284Z,0.40
2019-03-18T02:35:48.513Z,0.40
2019-03-18T02:40:55.392Z,0.20
2019-03-18T02:46:10.015Z,0.50
2019-03-18T02:51:11.943Z,0.50
2019-03-18T02:56:18.515Z,0.60
2019-03-18T03:01:25.520Z,0.37
2019-03-18T03:06:32.985Z,0.37
2019-03-18T03:11:39.301Z,0.60
2019-03-18T03:16:46.726Z,0.40
2019-03-18T03:21:53.302Z,0.40
2019-03-18T03:27:00.628Z,0.27
2019-03-18T03:32:06.843Z,0.43
2019-03-18T03:37:15.260Z,0.67
2019-03-18T03:42:21.981Z,0.50
2019-03-18T03:47:29.508Z,0.57
2019-03-18T03:52:37.396Z,0.70
2019-03-18T03:57:44.227Z,0.83
2019-03-18T04:02:50.684Z,0.40
2019-03-18T04:07:57.072Z,0.77
2019-03-18T04:13:03.261Z,0.53
2019-03-18T04:18:09.182Z,0.80
2019-03-18T04:23:15.506Z,0.50
2019-03-18T04:28:22.573Z,0.37
2019-03-18T04:33:28.518Z,0.90
2019-03-18T04:38:34.418Z,0.80
2019-03-18T04:43:40.642Z,0.70
2019-03-18T04:48:46.512Z,0.83
2019-03-18T04:53:53.068Z,0.80
2019-03-18T04:59:00.676Z,0.60
2019-03-18T05:04:07.183Z,0.70
2019-03-18T05:09:13.936Z,0.80
2019-03-18T05:14:19.917Z,0.90
2019-03-18T05:19:26.979Z,0.90
2019-03-18T05:24:34.733Z,0.80
2019-03-18T05:29:42.335Z,0.50
2019-03-18T05:34:49.939Z,2.70
2019-03-18T05:39:57.333Z,0.90
2019-03-18T05:45:05.077Z,1.13
2019-03-18T05:50:11.057Z,0.90
2019-03-18T05:55:17.045Z,1.43
2019-03-18T06:00:24.075Z,1.63
2019-03-18T06:05:30.683Z,1.40
2019-03-18T06:10:39.447Z,0.80
2019-03-18T06:15:46.082Z,1.40
2019-03-18T06:20:53.078Z,1.10
2019-03-18T06:25:58.982Z,1.73
2019-03-18T06:31:06.012Z,1.40
2019-03-18T06:36:14.752Z,1.77
2019-03-18T06:41:20.884Z,1.40
2019-03-18T06:46:27.373Z,1.40
2019-03-18T06:51:34.421Z,1.40
2019-03-18T06:56:41.149Z,1.60
2019-03-18T07:01:47.456Z,1.27
2019-03-18T07:06:55.064Z,1.20
2019-03-18T07:12:02.396Z,1.60
2019-03-18T07:17:09.391Z,1.50
2019-03-18T07:22:16.587Z,1.43
2019-03-18T07:27:24.624Z,1.43
2019-03-18T07:32:31.327Z,1.60
2019-03-18T07:37:38.379Z,1.30
2019-03-18T07:42:44.101Z,1.50
2019-03-18T07:47:50.402Z,1.23
2019-03-18T07:52:56.341Z,1.30
2019-03-18T07:58:02.557Z,1.40
2019-03-18T08:03:08.827Z,1.13
2019-03-18T08:08:16.027Z,0.80
2019-03-18T08:13:22.358Z,0.20
2019-03-18T08:18:42.482Z,0.60
2019-03-18T08:23:40.539Z,0.47
2019-03-18T08:28:47.944Z,0.30
2019-03-18T08:33:55.058Z,0.47
2019-03-18T08:39:05.282Z,0.40
2019-03-18T08:44:19.500Z,0.40
2019-03-18T08:49:27.305Z,0.30
2019-03-18T08:54:33.937Z,0.30
2019-03-18T08:59:41.738Z,0.50
2019-03-18T09:04:49.889Z,0.40
2019-03-18T09:09:56.717Z,0.20
2019-03-18T09:15:03.788Z,0.33
2019-03-18T09:20:10.160Z,0.30
2019-03-18T09:25:16.195Z,0.30
2019-03-18T09:30:22.313Z,0.03
2019-03-18T09:35:29.675Z,0.23
2019-03-18T09:40:37.796Z,0.53
2019-03-18T09:45:45.493Z,0.30
2019-03-18T09:50:57.154Z,0.10
2019-03-18T09:56:04.496Z,0.20
2019-03-18T10:01:11.774Z,0.20
2019-03-18T10:06:19.056Z,0.10
2019-03-18T10:11:28.397Z,0.13
2019-03-18T10:16:35.138Z,0.00
2019-03-18T10:21:42.285Z,0.20
2019-03-18T10:26:48.714Z,0.10
2019-03-18T10:31:54.552Z,0.40
2019-03-18T10:37:21.426Z,0.63
2019-03-18T10:42:27.874Z,0.20
2019-03-18T10:47:34.243Z,0.10
2019-03-18T10:52:41.645Z,0.37
2019-03-18T10:57:47.986Z,0.60
2019-03-18T11:02:54.042Z,0.17
2019-03-18T11:08:00.024Z,0.23
2019-03-18T11:13:09.514Z,0.10
2019-03-18T11:18:16.552Z,0.00
2019-03-18T11:23:24.099Z,0.20
2019-03-18T11:28:31.305Z,0.10
2019-03-18T11:33:38.492Z,0.40
2019-03-18T11:38:45.358Z,0.20
2019-03-18T11:43:52.841Z,0.23
2019-03-18T11:48:59.111Z,0.20
2019-03-18T11:54:05.305Z,0.20
2019-03-18T11:59:21.504Z,0.30
2019-03-18T12:04:32.636Z,0.30
2019-03-18T12:09:38.443Z,0.13
2019-03-18T12:14:45.122Z,0.20
2019-03-18T12:19:51.022Z,0.40
2019-03-18T12:24:58.070Z,0.53
2019-03-18T12:30:05.011Z,0.30
2019-03-18T12:35:10.990Z,0.30
2019-03-18T12:40:16.998Z,0.30
2019-03-18T12:45:23.676Z,0.40
2019-03-18T12:50:49.332Z,0.30
2019-03-18T12:55:39.303Z,0.60
2019-03-18T13:00:45.566Z,0.57
2019-03-18T13:05:52.449Z,0.30
2019-03-18T13:10:59.331Z,0.47
2019-03-18T13:16:07.639Z,0.50
2019-03-18T13:21:16.247Z,0.87
2019-03-18T13:26:23.737Z,0.63
2019-03-18T13:31:31.387Z,0.70
2019-03-18T13:36:37.623Z,0.57
2019-03-18T13:41:51.058Z,1.37
2019-03-18T13:46:57.997Z,0.80
2019-03-18T13:52:06.142Z,0.40
2019-03-18T13:57:14.516Z,0.50
2019-03-18T14:02:22.123Z,0.50
2019-03-18T14:07:29.962Z,0.70
2019-03-18T14:12:37.585Z,0.60
2019-03-18T14:17:44.955Z,0.47
2019-03-18T14:22:53.429Z,0.70
2019-03-18T14:28:00.747Z,1.10
2019-03-18T14:33:08.115Z,3.00
2019-03-18T14:38:15.138Z,1.55
2019-03-18T14:43:22.683Z,1.80
2019-03-18T14:48:30.285Z,0.30
2019-03-18T14:53:36.316Z,1.47
2019-03-18T14:58:42.170Z,0.57
2019-03-18T15:03:49.423Z,6.40
2019-03-18T15:08:55.624Z,0.60
2019-03-18T15:14:02.703Z,4.47
2019-03-18T15:19:08.916Z,1.73
2019-03-18T15:24:17.378Z,0.67
2019-03-18T15:29:23.772Z,0.50
2019-03-18T15:34:29.983Z,0.80
2019-03-18T15:39:35.950Z,6.03
2019-03-18T15:44:43.773Z,2.10
2019-03-18T15:49:51.636Z,2.40
2019-03-18T15:54:58.589Z,1.02
2019-03-18T16:00:05.727Z,7.50
2019-03-18T16:05:12.083Z,8.88
2019-03-18T16:10:21.730Z,6.30
2019-03-18T16:15:30.356Z,8.47
2019-03-18T16:20:39.061Z,6.53
2019-03-18T16:25:47.706Z,0.83
2019-03-18T16:30:55.196Z,0.60
2019-03-18T16:36:02.856Z,0.70
2019-03-18T16:41:11.722Z,0.27
2019-03-18T16:46:20.023Z,0.90
2019-03-18T16:51:27.265Z,0.50
2019-03-18T16:56:34.354Z,0.40
2019-03-18T17:01:43.123Z,0.53
2019-03-18T17:06:50.835Z,0.50
2019-03-18T17:11:58.849Z,1.00
2019-03-18T17:17:06.831Z,0.70
2019-03-18T17:22:13.085Z,0.77
2019-03-18T17:27:21.644Z,0.50
2019-03-18T17:32:28.575Z,0.50
2019-03-18T17:37:35.101Z,0.63
2019-03-18T17:42:42.637Z,0.87
2019-03-18T17:47:48.816Z,0.83
2019-03-18T17:53:02.931Z,1.00
2019-03-18T17:58:05.965Z,0.63
2019-03-18T18:03:12.496Z,0.97
2019-03-18T18:08:20.158Z,3.20
2019-03-18T18:13:28.100Z,2.90
2019-03-18T18:18:35.389Z,1.73
2019-03-18T18:23:42.942Z,1.10
2019-03-18T18:28:50.439Z,4.33
2019-03-18T18:33:56.520Z,6.33
2019-03-18T18:39:06.592Z,6.10
2019-03-18T18:44:15.015Z,1.90
2019-03-18T18:49:21.944Z,0.57
2019-03-18T18:54:29.776Z,0.50
2019-03-18T18:59:37.064Z,2.27
2019-03-18T19:04:44.772Z,0.80
2019-03-18T19:09:51.997Z,1.97
2019-03-18T19:14:58.210Z,1.83
2019-03-18T19:20:05.841Z,1.20
2019-03-18T19:25:13.351Z,0.60
2019-03-18T19:30:20.958Z,1.77
2019-03-18T19:35:29.055Z,1.10
2019-03-18T19:40:36.962Z,1.60
2019-03-18T19:45:43.635Z,0.70
2019-03-18T19:50:50.146Z,1.40
2019-03-18T19:55:58.374Z,0.83
2019-03-18T20:01:04.785Z,0.63
2019-03-18T20:06:13.674Z,0.63
2019-03-18T20:11:20.080Z,1.00
2019-03-18T20:16:26.448Z,2.43
2019-03-18T20:21:32.665Z,1.80
2019-03-18T20:26:39.233Z,1.27
2019-03-18T20:31:46.053Z,1.30
2019-03-18T20:36:52.452Z,1.13
2019-03-18T20:41:58.902Z,0.83
2019-03-18T20:47:05.520Z,1.57
2019-03-18T20:52:16.670Z,1.50
2019-03-18T20:57:21.199Z,1.00
2019-03-18T21:02:27.401Z,1.03
2019-03-18T21:07:34.369Z,1.00
2019-03-18T21:12:41.620Z,0.90
2019-03-18T21:17:47.843Z,1.30
2019-03-18T21:22:55.604Z,1.10
2019-03-18T21:28:03.298Z,1.00
2019-03-18T21:33:10.607Z,0.80
2019-03-18T21:38:17.202Z,0.83
2019-03-18T21:43:24.829Z,1.50
2019-03-18T21:48:34.162Z,1.30
2019-03-18T21:53:41.616Z,1.00
2019-03-18T21:58:48.931Z,1.43
2019-03-18T22:03:56.428Z,1.00
2019-03-18T22:09:06.374Z,1.00
2019-03-18T22:14:17.301Z,1.20
2019-03-18T22:19:26.119Z,1.20
2019-03-18T22:24:33.400Z,2.17
2019-03-18T22:29:40.671Z,2.07
2019-03-18T22:34:46.775Z,1.37
2019-03-18T22:39:54.313Z,1.40
2019-03-18T22:45:00.657Z,1.37
2019-03-18T22:50:07.910Z,1.37
2019-03-18T22:55:14.162Z,1.80
2019-03-18T23:00:45.456Z,1.00
2019-03-18T23:05:51.339Z,1.93
2019-03-18T23:10:59.820Z,1.60
2019-03-18T23:16:06.378Z,1.90
2019-03-18T23:21:13.728Z,1.77
2019-03-18T23:26:21.204Z,2.50
2019-03-18T23:31:28.347Z,1.83
2019-03-18T23:36:35.598Z,2.83
2019-03-18T23:41:43.437Z,1.67
2019-03-18T23:46:52.629Z,2.87
2019-03-18T23:51:59.334Z,2.60
2019-03-18T23:57:08.437Z,5.17
